map of LWV home
LWV - Airport
Location
City:  Lawrenceville, Illinois, United States
Name:Lawrenceville-Vincennes International Airport
ICAO:KLWV
IATA:LWV
FAA LID:LWV

Details
Type:Airport (Airfield)
Use:Public/Civil
Latitude:3845'51"N (38.764278)
Longitude:8736'20"W (-87.605499)
Datum:WGS 1984
Elevation:429 ft (131 m)
Variation:3.53W (WMM2015v2 magnetic declination)
-0.05 annual change
Runways:3
Longest:5199 × 100 ft (1585 × 30.5 m), paved

Time
Time Zone:UTC-6 (DST-5)
Local Time:

Weather
METAR:KLWV 041353Z AUTO 18010KT 10SM BKN018 BKN031 OVC046 11/09 A2985 RMK AO2 SLP107 T01110089

Related Locations
Nearby:
Farthest:YAUG: 11143 mi / 17933 km
Augusta [Augusta Airport], WA, AU

Find:

   beyond  
but within

Other Information
Maps:
NOTAMs:
Links:
Sources:

  
  • flag of United States
  • flag of Illinois
  

Sectional Chart

Flight Planning
at skyvector.com

Satellite Image

Google Maps Satellite view

 

Copyright © 2004-2019 Karl L. Swartz. All rights reserved.
The Great Circle Mapper name and logo are trademarks of the Great Circle Mapper.
All other trademarks mentioned herein belong to their respective owners.
Please see credits for attibutions and further copyright information.

  Follow gcmap on Facebook Follow gcmap on Twitter GCmap on LinkedIn

hCard Microformat

Geo Microformat